createdAt,value
2018-10-21T00:00:32.092Z,6.60
2018-10-21T00:03:02.583Z,6.70
2018-10-21T00:05:32.886Z,6.70
2018-10-21T00:08:03.255Z,6.80
2018-10-21T00:10:33.791Z,6.80
2018-10-21T00:13:04.123Z,6.80
2018-10-21T00:15:34.695Z,6.80
2018-10-21T00:18:05.124Z,6.80
2018-10-21T00:20:35.531Z,6.70
2018-10-21T00:23:06.055Z,6.70
2018-10-21T00:25:36.773Z,6.70
2018-10-21T00:28:07.740Z,6.70
2018-10-21T00:30:38.363Z,6.70
2018-10-21T00:33:08.817Z,6.60
2018-10-21T00:38:08.936Z,6.60
2018-10-21T00:40:39.299Z,6.60
2018-10-21T00:43:09.726Z,6.60
2018-10-21T00:45:40.035Z,6.60
2018-10-21T00:48:10.415Z,6.60
2018-10-21T00:50:41.005Z,6.60
2018-10-21T00:53:11.481Z,6.50
2018-10-21T00:55:41.795Z,6.50
2018-10-21T00:58:12.108Z,6.50
2018-10-21T01:00:42.915Z,6.50
2018-10-21T01:03:13.423Z,6.40
2018-10-21T01:08:13.382Z,6.40
2018-10-21T01:10:43.895Z,6.40
2018-10-21T01:13:14.272Z,6.40
2018-10-21T01:15:44.659Z,6.30
2018-10-21T01:18:15.003Z,6.30
2018-10-21T01:20:45.504Z,6.30
2018-10-21T01:23:15.777Z,6.30
2018-10-21T01:25:46.124Z,6.30
2018-10-21T01:28:16.543Z,6.40
2018-10-21T01:30:46.868Z,6.40
2018-10-21T01:35:47.043Z,6.70
2018-10-21T01:38:17.486Z,6.80
2018-10-21T01:40:48.892Z,6.80
2018-10-21T01:43:23.446Z,6.80
2018-10-21T01:45:53.904Z,6.90
2018-10-21T01:48:25.330Z,6.90
2018-10-21T01:50:55.758Z,6.80
2018-10-21T01:53:26.391Z,6.90
2018-10-21T01:55:56.909Z,6.80
2018-10-21T01:58:27.376Z,6.70
2018-10-21T02:00:57.788Z,6.70
2018-10-21T02:03:28.240Z,6.70
2018-10-21T02:08:28.535Z,6.70
2018-10-21T02:10:58.919Z,6.80
2018-10-21T02:13:29.336Z,6.80
2018-10-21T02:15:59.800Z,6.80
2018-10-21T02:18:44.827Z,6.80
2018-10-21T02:21:15.309Z,6.70
2018-10-21T02:23:45.701Z,6.70
2018-10-21T02:28:45.668Z,6.60
2018-10-21T02:31:16.121Z,6.60
2018-10-21T02:33:46.604Z,6.60
2018-10-21T02:36:16.914Z,6.60
2018-10-21T02:41:28.751Z,6.50
2018-10-21T02:43:59.052Z,6.50
2018-10-21T02:49:00.235Z,6.50
2018-10-21T02:51:30.967Z,6.40
2018-10-21T02:54:01.349Z,6.50
2018-10-21T02:56:31.820Z,6.50
2018-10-21T02:59:02.048Z,6.60
2018-10-21T03:01:32.371Z,6.60
2018-10-21T03:04:02.666Z,6.60
2018-10-21T03:09:03.045Z,6.60
2018-10-21T03:11:33.456Z,6.60
2018-10-21T03:14:04.153Z,6.70
2018-10-21T03:16:34.475Z,6.70
2018-10-21T03:19:04.808Z,6.60
2018-10-21T03:24:04.803Z,6.70
2018-10-21T03:26:35.637Z,6.70
2018-10-21T03:29:06.141Z,6.70
2018-10-21T03:31:36.706Z,6.70
2018-10-21T03:36:36.925Z,6.70
2018-10-21T03:39:09.629Z,6.60
2018-10-21T03:41:40.171Z,6.60
2018-10-21T03:44:10.455Z,6.60
2018-10-21T03:46:40.712Z,6.60
2018-10-21T03:49:11.043Z,6.60
2018-10-21T03:51:41.447Z,6.50
2018-10-21T03:54:11.749Z,6.50
2018-10-21T03:56:42.248Z,6.50
2018-10-21T03:59:12.761Z,6.50
2018-10-21T04:04:12.969Z,6.50
2018-10-21T04:06:43.473Z,6.50
2018-10-21T04:09:13.698Z,6.50
2018-10-21T04:11:44.161Z,6.50
2018-10-21T04:14:14.468Z,6.50
2018-10-21T04:16:44.833Z,6.50
2018-10-21T04:19:15.555Z,6.60
2018-10-21T04:24:15.782Z,6.60
2018-10-21T04:26:46.228Z,6.60
2018-10-21T04:29:16.641Z,6.60
2018-10-21T04:34:16.882Z,6.50
2018-10-21T04:36:47.123Z,6.50
2018-10-21T04:40:30.676Z,6.50
2018-10-21T04:43:01.046Z,6.50
2018-10-21T04:45:31.331Z,6.50
2018-10-21T04:48:01.881Z,6.50
2018-10-21T04:50:32.198Z,6.50
2018-10-21T04:53:02.471Z,6.60
2018-10-21T04:58:02.590Z,6.60
2018-10-21T05:00:33.292Z,6.50
2018-10-21T05:03:03.652Z,6.60
2018-10-21T05:05:34.156Z,6.50
2018-10-21T05:08:04.692Z,6.40
2018-10-21T05:10:38.257Z,6.30
2018-10-21T05:13:09.564Z,6.20
2018-10-21T05:18:10.425Z,6.10
2018-10-21T05:23:10.485Z,5.90
2018-10-21T05:25:40.847Z,5.80
2018-10-21T05:28:11.352Z,5.60
2018-10-21T05:30:41.728Z,5.50
2018-10-21T05:38:11.260Z,5.70
2018-10-21T05:43:11.512Z,6.00
2018-10-21T05:48:11.468Z,6.30
2018-10-21T05:50:41.952Z,6.40
2018-10-21T05:53:12.309Z,6.60
2018-10-21T05:55:42.849Z,6.70
2018-10-21T05:58:13.208Z,6.80
2018-10-21T06:00:43.602Z,6.70
2018-10-21T06:03:14.084Z,6.70
2018-10-21T06:05:46.487Z,6.70
2018-10-21T06:08:16.815Z,6.70
2018-10-21T06:10:47.225Z,6.70
2018-10-21T06:15:47.664Z,6.60
2018-10-21T06:18:21.342Z,6.60
2018-10-21T06:20:54.303Z,6.60
2018-10-21T06:23:24.564Z,6.60
2018-10-21T06:25:54.869Z,6.80
2018-10-21T06:28:25.599Z,6.90
2018-10-21T06:30:56.095Z,7.00
2018-10-21T06:33:26.579Z,7.10
2018-10-21T06:35:56.775Z,7.20
2018-10-21T06:38:27.196Z,7.40
2018-10-21T06:40:57.594Z,7.50
2018-10-21T06:43:30.124Z,7.50
2018-10-21T06:46:00.453Z,7.50
2018-10-21T06:48:31.063Z,7.60
2018-10-21T06:51:01.238Z,7.60
2018-10-21T06:53:31.515Z,7.60
2018-10-21T06:56:01.827Z,7.60
2018-10-21T06:58:32.244Z,7.60
2018-10-21T07:01:02.540Z,7.70
2018-10-21T07:03:32.930Z,7.70
2018-10-21T07:08:40.262Z,7.70
2018-10-21T07:11:10.660Z,7.80
2018-10-21T07:13:40.932Z,7.80
2018-10-21T07:16:11.640Z,7.90
2018-10-21T07:23:42.041Z,8.00
2018-10-21T07:26:12.475Z,8.10
2018-10-21T07:28:42.952Z,8.10
2018-10-21T07:31:13.450Z,8.20
2018-10-21T07:33:43.871Z,8.20
2018-10-21T07:36:14.235Z,8.30
2018-10-21T07:38:44.688Z,8.30
2018-10-21T07:41:14.892Z,8.50
2018-10-21T07:43:45.280Z,8.50
2018-10-21T07:48:45.165Z,8.90
2018-10-21T07:51:15.280Z,9.00
2018-10-21T07:53:45.553Z,8.90
2018-10-21T07:56:15.811Z,8.90
2018-10-21T07:58:46.087Z,8.90
2018-10-21T08:01:16.787Z,8.90
2018-10-21T08:03:47.322Z,8.90
2018-10-21T08:06:32.873Z,8.70
2018-10-21T08:09:03.409Z,8.70
2018-10-21T08:11:33.663Z,8.70
2018-10-21T08:14:04.196Z,8.70
2018-10-21T08:16:34.896Z,8.80
2018-10-21T08:19:05.130Z,9.00
2018-10-21T08:21:38.240Z,9.20
2018-10-21T08:24:12.150Z,9.30
2018-10-21T08:29:29.808Z,9.00
2018-10-21T08:32:01.101Z,8.90
2018-10-21T08:34:32.200Z,8.70
2018-10-21T08:37:04.613Z,8.70
2018-10-21T08:39:34.941Z,8.60
2018-10-21T08:42:06.256Z,8.60
2018-10-21T08:47:08.572Z,8.60
2018-10-21T08:49:38.850Z,8.50
2018-10-21T08:52:10.081Z,8.50
2018-10-21T08:57:18.675Z,8.40
2018-10-21T08:59:48.997Z,8.40
2018-10-21T09:02:20.113Z,8.50
2018-10-21T09:10:02.755Z,8.80
2018-10-21T09:15:11.462Z,8.80
2018-10-21T09:17:41.817Z,9.00
2018-10-21T09:22:48.829Z,8.80
2018-10-21T09:28:00.011Z,9.00
2018-10-21T09:33:01.033Z,9.60
2018-10-21T09:38:14.817Z,9.70
2018-10-21T09:43:19.611Z,9.20
2018-10-21T09:45:50.988Z,9.30
2018-10-21T09:48:32.727Z,9.40
2018-10-21T09:51:05.088Z,9.60
2018-10-21T09:53:44.808Z,10.00
2018-10-21T09:56:18.021Z,10.10
2018-10-21T09:58:53.795Z,10.10
2018-10-21T10:01:30.264Z,10.10
2018-10-21T10:04:04.775Z,10.10
2018-10-21T10:06:39.014Z,10.10
2018-10-21T10:09:15.466Z,10.20
2018-10-21T10:11:45.819Z,10.40
2018-10-21T10:14:16.844Z,10.50
2018-10-21T10:24:33.804Z,11.30
2018-10-21T10:27:04.973Z,11.50
2018-10-21T10:29:42.900Z,11.60
2018-10-21T10:34:42.779Z,12.00
2018-10-21T10:37:13.983Z,12.00
2018-10-21T10:39:47.967Z,12.00
2018-10-21T10:42:22.827Z,12.00
2018-10-21T10:47:29.064Z,12.60
2018-10-21T10:50:02.987Z,12.90
2018-10-21T10:52:35.049Z,12.90
2018-10-21T10:55:17.817Z,12.90
2018-10-21T10:57:48.927Z,12.90
2018-10-21T11:03:00.878Z,12.50
2018-10-21T11:05:34.999Z,12.20
2018-10-21T11:08:16.625Z,12.00
2018-10-21T11:10:47.918Z,12.10
2018-10-21T11:13:24.807Z,12.00
2018-10-21T11:15:55.970Z,12.10
2018-10-21T11:21:08.720Z,12.00
2018-10-21T11:23:39.037Z,11.90
2018-10-21T11:26:10.876Z,11.90
2018-10-21T11:31:22.957Z,11.70
2018-10-21T11:33:55.891Z,11.70
2018-10-21T11:41:34.999Z,12.30
2018-10-21T11:49:10.857Z,12.90
2018-10-21T11:51:42.871Z,12.90
2018-10-21T11:56:54.011Z,12.20
2018-10-21T11:59:29.824Z,11.70
2018-10-21T12:02:02.013Z,11.90
2018-10-21T12:07:13.843Z,11.90
2018-10-21T12:09:47.014Z,11.80
2018-10-21T12:12:22.783Z,11.80
2018-10-21T12:17:33.789Z,11.60
2018-10-21T12:20:10.022Z,11.40
2018-10-21T12:22:42.793Z,11.40
2018-10-21T12:25:14.064Z,11.50
2018-10-21T12:27:45.874Z,11.50
2018-10-21T12:30:19.013Z,11.50
2018-10-21T12:35:28.017Z,11.60
2018-10-21T12:37:59.057Z,11.90
2018-10-21T12:40:36.120Z,12.20
2018-10-21T12:48:13.630Z,14.90
2018-10-21T12:50:44.936Z,16.00
2018-10-21T12:53:19.081Z,16.80
2018-10-21T13:01:06.642Z,17.20
2018-10-21T13:03:43.108Z,16.30
2018-10-21T13:06:19.028Z,15.00
2018-10-21T13:14:02.950Z,13.20
2018-10-21T13:21:43.839Z,12.30
2018-10-21T13:24:20.156Z,12.50
2018-10-21T13:26:55.960Z,12.00
2018-10-21T13:32:02.888Z,11.70
2018-10-21T13:39:49.965Z,11.50
2018-10-21T13:42:22.110Z,11.70
2018-10-21T13:47:34.965Z,11.80
2018-10-21T13:50:10.908Z,11.60
2018-10-21T13:52:42.145Z,11.80
2018-10-21T13:57:53.902Z,11.80
2018-10-21T14:00:26.023Z,12.00
2018-10-21T14:02:57.830Z,12.10
2018-10-21T14:05:29.002Z,12.20
2018-10-21T14:08:01.180Z,12.20
2018-10-21T14:10:34.927Z,12.20
2018-10-21T14:15:48.073Z,12.10
2018-10-21T14:18:23.835Z,11.90
2018-10-21T14:23:35.033Z,11.40
2018-10-21T14:26:05.889Z,11.60
2018-10-21T14:33:52.016Z,13.80
2018-10-21T14:38:51.989Z,14.20
2018-10-21T14:44:07.652Z,14.80
2018-10-21T14:49:12.430Z,14.90
2018-10-21T14:51:47.796Z,14.90
2018-10-21T14:54:19.042Z,15.00
2018-10-21T14:57:00.123Z,15.20
2018-10-21T14:59:31.474Z,15.40
2018-10-21T15:02:06.688Z,15.50
2018-10-21T15:04:36.802Z,15.50
2018-10-21T15:07:08.087Z,15.60
2018-10-21T15:09:42.103Z,15.50
2018-10-21T15:12:17.982Z,15.40
2018-10-21T15:17:33.916Z,15.10
2018-10-21T15:20:12.962Z,14.70
2018-10-21T15:22:45.055Z,14.40
2018-10-21T15:25:21.525Z,14.10
2018-10-21T15:27:51.952Z,13.80
2018-10-21T15:30:24.994Z,13.30
2018-10-21T15:32:56.984Z,12.80
2018-10-21T15:35:39.637Z,12.30
2018-10-21T15:41:10.992Z,11.20
2018-10-21T15:43:42.987Z,10.70
2018-10-21T15:46:29.093Z,10.20
2018-10-21T15:49:05.888Z,9.60
2018-10-21T15:51:37.037Z,9.10
2018-10-21T15:54:17.822Z,8.60
2018-10-21T15:56:49.453Z,8.20
2018-10-21T15:59:19.746Z,7.80
2018-10-21T16:04:30.825Z,7.40
2018-10-21T16:17:36.671Z,6.60
2018-10-21T16:20:12.157Z,6.40
2018-10-21T16:28:10.884Z,6.00
2018-10-21T16:33:24.835Z,5.80
2018-10-21T16:35:56.045Z,5.80
2018-10-21T16:38:35.994Z,5.70
2018-10-21T16:41:17.892Z,5.60
2018-10-21T16:43:53.846Z,5.50
2018-10-21T16:51:45.968Z,5.20
2018-10-21T16:57:04.029Z,4.90
2018-10-21T16:59:44.784Z,4.90
2018-10-21T17:02:15.981Z,4.90
2018-10-21T17:04:48.866Z,4.80
2018-10-21T17:10:04.087Z,4.70
2018-10-21T17:12:36.937Z,4.70
2018-10-21T17:15:11.850Z,4.70
2018-10-21T17:17:43.439Z,4.70
2018-10-21T17:20:17.934Z,4.70
2018-10-21T17:22:59.841Z,4.60
2018-10-21T17:28:10.959Z,4.60
2018-10-21T17:30:50.950Z,4.50
2018-10-21T17:35:51.942Z,4.50
2018-10-21T17:43:50.747Z,4.20
2018-10-21T17:46:25.062Z,4.00
2018-10-21T17:49:02.997Z,4.00
2018-10-21T17:54:16.023Z,3.80
2018-10-21T17:56:56.793Z,3.80
2018-10-21T17:59:29.458Z,3.70
2018-10-21T18:01:59.841Z,3.70
2018-10-21T18:04:39.792Z,3.60
2018-10-21T18:07:11.992Z,3.50
2018-10-21T18:09:49.894Z,3.60
2018-10-21T18:20:16.812Z,3.50
2018-10-21T18:22:47.706Z,3.60
2018-10-21T18:28:05.014Z,3.60
2018-10-21T18:30:37.900Z,3.50
2018-10-21T18:33:12.954Z,3.50
2018-10-21T18:35:49.651Z,3.50
2018-10-21T18:40:56.908Z,3.60
2018-10-21T18:46:13.808Z,3.60
2018-10-21T18:48:46.889Z,3.60
2018-10-21T18:51:28.768Z,3.60
2018-10-21T18:59:15.703Z,3.30
2018-10-21T19:09:47.904Z,3.20
2018-10-21T19:12:22.793Z,3.20
2018-10-21T19:17:35.073Z,3.20
2018-10-21T19:22:56.767Z,3.10
2018-10-21T19:25:28.925Z,3.00
2018-10-21T19:35:47.829Z,2.80
2018-10-21T19:41:00.868Z,2.70
2018-10-21T19:46:13.814Z,2.60
2018-10-21T19:51:25.000Z,2.60
2018-10-21T19:54:04.091Z,2.50
2018-10-21T19:59:05.085Z,2.50
2018-10-21T20:01:38.908Z,2.50
2018-10-21T20:06:51.213Z,2.50
2018-10-21T20:12:03.229Z,2.40
2018-10-21T20:14:40.021Z,2.40
2018-10-21T20:17:13.232Z,2.50
2018-10-21T20:19:48.904Z,2.40
2018-10-21T20:22:19.077Z,2.30
2018-10-21T20:24:50.616Z,2.40
2018-10-21T20:27:20.944Z,2.50
2018-10-21T20:32:27.330Z,2.40
2018-10-21T20:35:02.973Z,2.40
2018-10-21T20:42:44.859Z,2.30
2018-10-21T20:45:15.328Z,2.30
2018-10-21T20:47:45.777Z,2.20
2018-10-21T20:50:16.119Z,2.10
2018-10-21T20:52:46.563Z,2.10
2018-10-21T20:55:16.896Z,2.10
2018-10-21T20:57:47.188Z,2.10
2018-10-21T21:00:17.668Z,2.10
2018-10-21T21:02:48.106Z,2.00
2018-10-21T21:05:18.610Z,2.00
2018-10-21T21:07:49.063Z,2.00
2018-10-21T21:10:19.429Z,2.00
2018-10-21T21:12:49.875Z,1.90
2018-10-21T21:15:20.064Z,1.90
2018-10-21T21:17:50.552Z,1.80
2018-10-21T21:20:20.822Z,1.80
2018-10-21T21:22:51.295Z,1.80
2018-10-21T21:25:21.638Z,1.70
2018-10-21T21:27:52.012Z,1.70
2018-10-21T21:30:22.534Z,1.70
2018-10-21T21:32:52.870Z,1.70
2018-10-21T21:35:23.196Z,1.60
2018-10-21T21:40:23.184Z,1.70
2018-10-21T21:42:53.955Z,1.70
2018-10-21T21:45:24.376Z,1.60
2018-10-21T21:47:54.742Z,1.60
2018-10-21T21:50:25.042Z,1.60
2018-10-21T21:52:55.451Z,1.60
2018-10-21T21:55:25.822Z,1.50
2018-10-21T21:57:56.267Z,1.40
2018-10-21T22:00:26.731Z,1.30
2018-10-21T22:02:57.071Z,1.20
2018-10-21T22:07:56.870Z,1.10
2018-10-21T22:10:27.510Z,1.00
2018-10-21T22:12:57.939Z,1.00
2018-10-21T22:15:28.382Z,1.00
2018-10-21T22:20:28.752Z,0.90
2018-10-21T22:22:59.071Z,0.90
2018-10-21T22:25:29.355Z,1.00
2018-10-21T22:27:59.794Z,1.00
2018-10-21T22:30:30.224Z,1.00
2018-10-21T22:33:00.686Z,0.80
2018-10-21T22:35:30.967Z,0.80
2018-10-21T22:38:01.486Z,0.90
2018-10-21T22:40:31.816Z,0.90
2018-10-21T22:43:02.295Z,1.00
2018-10-21T22:45:32.576Z,1.00
2018-10-21T22:48:03.050Z,0.80
2018-10-21T22:50:33.544Z,0.70
2018-10-21T22:53:04.064Z,0.60
2018-10-21T22:55:34.279Z,0.60
2018-10-21T22:58:04.726Z,0.60
2018-10-21T23:00:35.226Z,0.70
2018-10-21T23:03:05.670Z,0.70
2018-10-21T23:05:36.142Z,0.80
2018-10-21T23:08:06.731Z,0.90
2018-10-21T23:10:37.323Z,0.80
2018-10-21T23:13:07.775Z,0.70
2018-10-21T23:15:38.112Z,0.60
2018-10-21T23:18:08.825Z,0.60
2018-10-21T23:20:39.247Z,0.50
2018-10-21T23:23:09.617Z,0.60
2018-10-21T23:25:40.056Z,0.50
2018-10-21T23:28:10.748Z,0.60
2018-10-21T23:30:41.183Z,0.60
2018-10-21T23:35:41.320Z,0.60
2018-10-21T23:40:41.384Z,0.50
2018-10-21T23:43:11.755Z,0.50
2018-10-21T23:45:42.192Z,0.40
2018-10-21T23:48:12.585Z,0.40
2018-10-21T23:50:42.923Z,0.40
2018-10-21T23:53:13.404Z,0.40
2018-10-21T23:55:43.733Z,0.40
2018-10-21T23:58:14.299Z,0.30
